^^
Station Historical Data
Daily Summary for March 23, 2017 Units:  English    Metric   Both
« Previous Day
Next Day »
Daily Weekly Monthly Yearly Custom
  High: Low: Average:
Temperature: 41.3 °F 19.5 °F 29.2 °F
Dew Point: 20.6 °F 2.6 °F 7 °F
Humidity: 61% 23% 41%
Wind Speed: 5.0mph 0.0mph 0.9mph
Wind Gust: 14.0mph - -
Wind- - West
Pressure: 30.63 in 30.46 in -
Precipitation: 0.00 in    
Historical Graphs
 
 
Tabular Data for March 23, 2017
Time Temperature Dew Point Pressure Wind Wind Speed Wind Gust Humidity Rainfall Rate (Hourly) Conditions
00:00 21.2 °F 2.6 °F 30.46 in WNW 1.0 mph 13.0 mph 44% 0.00 in CLR
00:15 21.1 °F 3.5 °F 30.47 in North 2.0 mph 10.0 mph 46% 0.00 in CLR
00:30 21.0 °F 3.4 °F 30.47 in North 3.0 mph 13.0 mph 46% 0.00 in CLR
00:45 20.8 °F 3.7 °F 30.47 in Calm   12.0 mph 47% 0.00 in CLR
01:00 20.8 °F 5.1 °F 30.47 in NNE 1.0 mph 5.0 mph 50% 0.00 in CLR
02:15 20.6 °F 6.6 °F 30.48 in NNW 1.0 mph 7.0 mph 54% 0.00 in CLR
02:30 20.5 °F 6.9 °F 30.48 in North 1.0 mph 4.0 mph 55% 0.00 in CLR
02:45 20.5 °F 6.9 °F 30.49 in North 1.0 mph 5.0 mph 55% 0.00 in CLR
03:00 20.6 °F 7.0 °F 30.49 in Calm   4.0 mph 55% 0.00 in CLR
03:15 20.5 °F 7.3 °F 30.49 in North 1.0 mph 5.0 mph 56% 0.00 in CLR
03:30 20.6 °F 7.3 °F 30.49 in ENE 1.0 mph 5.0 mph 56% 0.00 in CLR
03:45 20.5 °F 7.7 °F 30.49 in NNW 1.0 mph 4.0 mph 57% 0.00 in CLR
04:00 20.4 °F 7.6 °F 30.49 in Calm   4.0 mph 57% 0.00 in CLR
04:15 20.4 °F 8.0 °F 30.50 in Calm   4.0 mph 58% 0.00 in CLR
04:30 20.2 °F 7.4 °F 30.50 in Calm   2.0 mph 57% 0.00 in CLR
04:45 20.1 °F 7.3 °F 30.51 in Calm   4.0 mph 57% 0.00 in CLR
05:00 20.3 °F 7.5 °F 30.51 in Calm   4.0 mph 57% 0.00 in CLR
05:15 20.1 °F 7.7 °F 30.52 in Calm   3.0 mph 58% 0.00 in CLR
05:30 20.1 °F 7.7 °F 30.52 in Calm   4.0 mph 58% 0.00 in CLR
05:45 20.0 °F 7.6 °F 30.53 in Calm   7.0 mph 58% 0.00 in CLR
06:00 20.0 °F 7.6 °F 30.54 in NNW 1.0 mph 4.0 mph 58% 0.00 in CLR
06:15 19.9 °F 7.9 °F 30.55 in Calm   4.0 mph 59% 0.00 in CLR
06:30 19.7 °F 7.3 °F 30.56 in Calm   2.0 mph 58% 0.00 in CLR
07:00 19.5 °F 7.8 °F 30.57 in Calm   3.0 mph 60% 0.00 in CLR
07:15 19.6 °F 7.5 °F 30.58 in Calm   3.0 mph 59% 0.00 in CLR
07:30 19.6 °F 7.6 °F 30.59 in Calm   2.0 mph 59% 0.00 in CLR
07:45 19.8 °F 7.8 °F 30.59 in Calm   2.0 mph 59% 0.00 in CLR
08:00 20.1 °F 8.1 °F 30.60 in Calm   2.0 mph 59% 0.00 in CLR
08:15 20.7 °F 7.8 °F 30.60 in Calm   2.0 mph 57% 0.00 in CLR
08:30 21.3 °F 7.2 °F 30.61 in NW 2.0 mph 5.0 mph 54% 0.00 in CLR
08:45 22.1 °F 7.5 °F 30.62 in NW 1.0 mph 5.0 mph 53% 0.00 in CLR
09:15 24.5 °F 7.1 °F 30.62 in NW 1.0 mph 6.0 mph 47% 0.00 in CLR
09:30 24.8 °F 4.9 °F 30.62 in NNW 5.0 mph 10.0 mph 42% 0.00 in CLR
09:45 24.7 °F 4.3 °F 30.62 in North 1.0 mph 12.0 mph 41% 0.00 in CLR
10:00 25.4 °F 4.4 °F 30.63 in NW 3.0 mph 9.0 mph 40% 0.00 in CLR
10:15 25.8 °F 4.7 °F 30.63 in NNW 3.0 mph 8.0 mph 40% 0.00 in CLR
10:30 26.3 °F 4.1 °F 30.63 in North 2.0 mph 10.0 mph 38% 0.00 in CLR
10:45 27.5 °F 5.2 °F 30.63 in NNW 2.0 mph 8.0 mph 38% 0.00 in CLR
11:00 27.7 °F 4.8 °F 30.63 in North 2.0 mph 9.0 mph 37% 0.00 in CLR
11:15 28.3 °F 5.3 °F 30.63 in NNW 1.0 mph 8.0 mph 37% 0.00 in CLR
11:30 28.9 °F 5.2 °F 30.63 in WNW 3.0 mph 8.0 mph 36% 0.00 in CLR
11:45 29.8 °F 4.8 °F 30.62 in NNE 1.0 mph 8.0 mph 34% 0.00 in CLR
12:00 30.5 °F 5.4 °F 30.62 in NW 1.0 mph 7.0 mph 34% 0.00 in CLR
12:15 30.6 °F 4.8 °F 30.61 in WNW 1.0 mph 6.0 mph 33% 0.00 in CLR
12:30 31.7 °F 5.2 °F 30.61 in Calm   7.0 mph 32% 0.00 in CLR
12:45 32.8 °F 4.7 °F 30.61 in WNW 1.0 mph 6.0 mph 30% 0.00 in CLR
13:00 32.3 °F 4.3 °F 30.60 in WNW 2.0 mph 7.0 mph 30% 0.00 in CLR
13:15 33.2 °F 4.3 °F 30.60 in North 2.0 mph 6.0 mph 29% 0.00 in CLR
13:30 33.3 °F 4.4 °F 30.59 in West 2.0 mph 7.0 mph 29% 0.00 in CLR
13:45 33.9 °F 4.9 °F 30.59 in Calm   5.0 mph 29% 0.00 in CLR
14:00 34.3 °F 5.3 °F 30.58 in WNW 1.0 mph 5.0 mph 29% 0.00 in CLR
14:15 35.8 °F 5.8 °F 30.58 in Calm   6.0 mph 28% 0.00 in CLR
14:30 36.0 °F 5.2 °F 30.57 in Calm   7.0 mph 27% 0.00 in CLR
14:45 36.4 °F 5.5 °F 30.57 in NNW 1.0 mph 8.0 mph 27% 0.00 in CLR
15:00 37.2 °F 6.2 °F 30.56 in NNE 1.0 mph 12.0 mph 27% 0.00 in CLR
15:15 37.3 °F 4.6 °F 30.55 in NW 2.0 mph 8.0 mph 25% 0.00 in CLR
15:30 37.9 °F 6.0 °F 30.55 in NW 3.0 mph 12.0 mph 26% 0.00 in CLR
15:45 38.2 °F 4.5 °F 30.55 in WNW 5.0 mph 8.0 mph 24% 0.00 in CLR
16:00 38.7 °F 5.0 °F 30.54 in SW 2.0 mph 12.0 mph 24% 0.00 in CLR
16:15 39.5 °F 5.6 °F 30.54 in WNW 2.0 mph 8.0 mph 24% 0.00 in CLR
16:30 39.8 °F 6.7 °F 30.54 in WSW 2.0 mph 8.0 mph 25% 0.00 in CLR
16:45 40.4 °F 5.5 °F 30.54 in NW 2.0 mph 9.0 mph 23% 0.00 in CLR
17:00 39.7 °F 4.9 °F 30.53 in NNW 2.0 mph 8.0 mph 23% 0.00 in CLR
17:15 40.9 °F 6.8 °F 30.53 in Calm   6.0 mph 24% 0.00 in CLR
17:30 41.3 °F 6.2 °F 30.53 in WSW 2.0 mph 7.0 mph 23% 0.00 in CLR
17:45 41.2 °F 7.1 °F 30.53 in WSW 1.0 mph 14.0 mph 24% 0.00 in CLR
18:00 40.9 °F 5.9 °F 30.53 in SW 1.0 mph 6.0 mph 23% 0.00 in CLR
18:15 40.7 °F 6.6 °F 30.53 in West 1.0 mph 6.0 mph 24% 0.00 in CLR
18:30 40.8 °F 6.7 °F 30.53 in SW 2.0 mph 6.0 mph 24% 0.00 in CLR
18:45 40.7 °F 6.6 °F 30.53 in Calm   6.0 mph 24% 0.00 in CLR
19:00 39.3 °F 6.3 °F 30.54 in WSW 2.0 mph 4.0 mph 25% 0.00 in CLR
19:15 37.9 °F 6.0 °F 30.54 in Calm   3.0 mph 26% 0.00 in CLR
19:30 36.7 °F 7.4 °F 30.54 in Calm   1.0 mph 29% 0.00 in CLR
19:45 36.4 °F 7.1 °F 30.54 in Calm   1.0 mph 29% 0.00 in CLR
20:00 35.7 °F 8.0 °F 30.55 in Calm     31% 0.00 in CLR
20:15 35.3 °F 9.7 °F 30.55 in Calm     34% 0.00 in CLR
20:30 33.9 °F 10.9 °F 30.55 in Calm   1.0 mph 38% 0.00 in CLR
20:45 33.1 °F 10.8 °F 30.56 in Calm     39% 0.00 in CLR
21:00 32.1 °F 10.4 °F 30.57 in Calm     40% 0.00 in CLR
21:15 31.5 °F 8.8 °F 30.59 in Calm   1.0 mph 38% 0.00 in CLR
21:45 30.6 °F 11.7 °F 30.59 in Calm     45% 0.00 in CLR
22:00 29.8 °F 11.0 °F 30.59 in Calm     45% 0.00 in CLR
22:15 30.3 °F 11.5 °F 30.59 in Calm     45% 0.00 in CLR
22:30 28.9 °F 11.2 °F 30.59 in Calm     47% 0.00 in CLR
22:45 31.7 °F 7.7 °F 30.58 in Calm   1.0 mph 36% 0.00 in CLR
23:00 31.9 °F 10.2 °F 30.58 in Calm   1.0 mph 40% 0.00 in CLR
23:15 32.1 °F 16.0 °F 30.56 in Calm   1.0 mph 51% 0.00 in CLR
23:30 32.3 °F 19.2 °F 30.56 in Calm   1.0 mph 58% 0.00 in CLR
23:45 32.6 °F 20.6 °F 30.56 in Calm   1.0 mph 61% 0.00 in CLR
TarryTown NY Weather
Compliments of Weather Underground - 1.5 mb